Time;durP1;ratioP1;P1;durP2;ratioP2;P2;SDS_P1;SDS_P2;PMS_P1;PMS_P2;Temp;Humidity;BMP_temperature;BMP_pressure;BME280_temperature;BME280_humidity;BME280_pressure;Samples;Min_cycle;Max_cycle;Signal;HPM_P1;HPM_P2
2021/07/08 00:00:40;;;;;;;7.63;1.50;;;19.70;99.90;;;;;;5092320;28;20204;-57
2021/07/08 00:03:07;;;;;;;1.70;1.20;;;19.80;99.90;;;;;;5092050;28;20599;-56
2021/07/08 00:05:37;;;;;;;6.53;1.40;;;19.80;99.90;;;;;;5092563;28;20207;-57
2021/07/08 00:08:04;;;;;;;3.20;1.30;;;19.80;99.90;;;;;;5091972;28;20265;-57
2021/07/08 00:10:36;;;;;;;6.18;1.30;;;19.80;99.90;;;;;;5092259;28;20235;-56
2021/07/08 00:13:05;;;;;;;2.35;1.38;;;19.80;99.90;;;;;;5092208;28;20235;-56
2021/07/08 00:15:33;;;;;;;2.40;1.20;;;19.80;99.90;;;;;;5091995;28;20265;-57
2021/07/08 00:18:00;;;;;;;1.80;1.48;;;19.90;99.90;;;;;;5091737;28;20211;-56
2021/07/08 00:20:28;;;;;;;1.10;1.00;;;19.90;99.90;;;;;;5091861;28;20690;-57
2021/07/08 00:22:55;;;;;;;2.13;1.20;;;19.80;99.90;;;;;;5091651;28;20243;-56
2021/07/08 00:25:24;;;;;;;2.25;1.08;;;19.80;99.90;;;;;;5092079;28;20205;-54
2021/07/08 00:27:51;;;;;;;3.60;1.30;;;19.80;99.90;;;;;;5091989;28;20211;-55
2021/07/08 00:30:20;;;;;;;1.80;1.10;;;19.70;99.90;;;;;;5091342;28;20222;-55
2021/07/08 00:32:48;;;;;;;4.63;1.40;;;19.80;99.90;;;;;;5091553;28;20658;-55
2021/07/08 00:35:15;;;;;;;3.00;1.33;;;19.80;99.90;;;;;;5091428;28;20675;-57
2021/07/08 00:37:42;;;;;;;4.80;1.38;;;19.80;99.90;;;;;;5091449;28;20663;-54
2021/07/08 00:40:11;;;;;;;3.65;1.10;;;19.80;99.90;;;;;;5091620;28;20200;-55
2021/07/08 00:42:38;;;;;;;2.58;1.20;;;19.80;99.90;;;;;;5091455;28;20224;-55
2021/07/08 00:45:06;;;;;;;3.60;1.25;;;19.70;99.90;;;;;;5091350;28;20203;-56
2021/07/08 00:47:34;;;;;;;4.70;1.20;;;19.60;99.90;;;;;;5091397;28;20668;-55
2021/07/08 00:50:01;;;;;;;1.30;1.20;;;19.60;99.90;;;;;;5091173;28;20744;-56
2021/07/08 00:52:28;;;;;;;1.77;1.10;;;19.50;99.90;;;;;;5091543;28;20224;-55
2021/07/08 00:54:54;;;;;;;3.15;1.15;;;19.40;99.90;;;;;;5091503;28;20204;-56
2021/07/08 00:57:23;;;;;;;2.92;1.23;;;18.60;99.90;;;;;;5091256;28;20204;-56
2021/07/08 00:59:52;;;;;;;2.15;1.10;;;19.40;99.90;;;;;;5091171;28;20577;-56
2021/07/08 01:02:20;;;;;;;2.88;1.33;;;19.30;99.90;;;;;;5091083;28;20228;-57
2021/07/08 01:04:49;;;;;;;2.53;1.40;;;19.40;99.90;;;;;;5091136;28;20211;-56
2021/07/08 01:07:18;;;;;;;2.33;1.20;;;19.40;99.90;;;;;;5091288;28;20201;-56
2021/07/08 01:09:46;;;;;;;3.28;1.17;;;19.40;99.90;;;;;;5090809;28;20204;-55
2021/07/08 01:12:12;;;;;;;7.00;1.40;;;19.40;99.90;;;;;;5090917;28;20255;-55
2021/07/08 01:14:39;;;;;;;1.65;1.10;;;19.30;99.90;;;;;;5090998;28;20204;-56
2021/07/08 01:17:07;;;;;;;3.83;1.20;;;19.30;99.90;;;;;;5091352;28;20255;-55
2021/07/08 01:19:36;;;;;;;1.70;1.20;;;19.30;99.90;;;;;;5090917;28;20208;-56
2021/07/08 01:22:05;;;;;;;4.45;1.23;;;19.20;99.90;;;;;;5090791;28;20327;-56
2021/07/08 01:24:32;;;;;;;1.73;1.05;;;19.20;99.90;;;;;;5090807;28;20608;-56
2021/07/08 01:27:00;;;;;;;2.10;1.40;;;19.10;99.90;;;;;;5090812;28;20200;-57
2021/07/08 01:29:28;;;;;;;3.85;1.10;;;19.20;99.90;;;;;;5090644;28;20704;-56
2021/07/08 01:31:54;;;;;;;7.22;1.48;;;19.30;99.90;;;;;;5090858;28;20236;-55
2021/07/08 01:34:21;;;;;;;3.10;1.23;;;19.20;99.90;;;;;;5090813;28;20261;-58
2021/07/08 01:36:48;;;;;;;6.32;1.73;;;19.10;99.90;;;;;;5090997;28;20211;-56
2021/07/08 01:39:17;;;;;;;3.30;1.20;;;19.00;99.90;;;;;;5090759;28;20208;-56
2021/07/08 01:41:44;;;;;;;4.85;1.30;;;18.90;99.90;;;;;;5091876;28;20222;-56
2021/07/08 01:44:11;;;;;;;5.40;1.70;;;18.70;99.90;;;;;;5094707;28;20231;-55
2021/07/08 01:46:39;;;;;;;8.30;1.60;;;18.60;99.90;;;;;;5095224;28;20204;-57
2021/07/08 01:49:06;;;;;;;3.20;1.45;;;18.60;99.90;;;;;;5095003;28;20208;-56
2021/07/08 01:51:35;;;;;;;3.70;1.50;;;18.50;99.90;;;;;;5094843;28;20235;-56
2021/07/08 01:54:04;;;;;;;2.28;1.60;;;18.30;99.90;;;;;;5094841;28;20257;-55
2021/07/08 01:56:33;;;;;;;2.30;1.60;;;18.20;99.90;;;;;;5094632;28;20212;-55
2021/07/08 01:58:59;;;;;;;4.78;1.52;;;18.20;99.90;;;;;;5094934;28;20211;-55
2021/07/08 02:01:26;;;;;;;2.65;1.48;;;18.20;99.90;;;;;;5094652;28;20198;-57
2021/07/08 02:03:53;;;;;;;2.85;1.70;;;18.40;99.90;;;;;;5094546;28;20203;-55
2021/07/08 02:06:20;;;;;;;2.45;1.85;;;18.60;99.90;;;;;;5094539;28;20211;-57
2021/07/08 02:08:49;;;;;;;4.38;1.95;;;18.70;99.90;;;;;;5094912;28;20208;-55
2021/07/08 02:11:15;;;;;;;1.60;1.50;;;18.90;99.90;;;;;;5094562;28;20227;-55
2021/07/08 02:13:43;;;;;;;2.63;1.60;;;18.70;99.90;;;;;;5094244;28;20235;-55
2021/07/08 02:16:11;;;;;;;2.10;1.40;;;19.00;99.90;;;;;;5094416;28;20261;-57
2021/07/08 02:18:39;;;;;;;4.70;1.73;;;19.10;99.90;;;;;;5094261;28;20591;-56
2021/07/08 02:21:08;;;;;;;3.05;1.30;;;19.00;99.90;;;;;;5094128;28;20200;-56
2021/07/08 02:23:36;;;;;;;4.28;1.70;;;19.00;99.90;;;;;;5093716;28;20239;-55
2021/07/08 02:26:04;;;;;;;2.58;1.35;;;19.00;99.90;;;;;;5094186;28;20257;-55
2021/07/08 02:28:31;;;;;;;3.03;1.42;;;19.00;99.90;;;;;;5094052;28;20215;-55
2021/07/08 02:30:59;;;;;;;2.97;1.70;;;19.10;99.90;;;;;;5093949;28;20640;-55
2021/07/08 02:33:27;;;;;;;2.60;1.77;;;19.10;99.90;;;;;;5093631;28;20227;-56
2021/07/08 02:35:54;;;;;;;6.38;2.00;;;19.20;99.90;;;;;;5093906;28;20583;-56
2021/07/08 02:38:22;;;;;;;5.18;2.05;;;19.30;99.90;;;;;;5093969;28;20211;-55
2021/07/08 02:40:49;;;;;;;6.13;1.90;;;19.20;99.90;;;;;;5094023;28;20309;-56
2021/07/08 02:43:16;;;;;;;2.50;1.77;;;19.30;99.90;;;;;;5093775;28;20319;-56
2021/07/08 02:45:44;;;;;;;2.65;1.77;;;19.20;99.90;;;;;;5093616;28;20204;-57
2021/07/08 02:48:14;;;;;;;7.18;1.90;;;19.10;99.90;;;;;;5093755;28;20625;-55
2021/07/08 02:50:42;;;;;;;2.92;1.60;;;19.00;99.90;;;;;;5094020;28;20228;-56
2021/07/08 02:53:10;;;;;;;6.15;2.33;;;19.20;99.90;;;;;;5092759;28;20338;-56
2021/07/08 02:55:38;;;;;;;8.65;2.00;;;19.10;99.90;;;;;;5093408;28;20200;-57
2021/07/08 02:58:04;;;;;;;5.28;2.15;;;19.20;99.90;;;;;;5093389;28;20582;-56
2021/07/08 03:00:31;;;;;;;3.28;2.22;;;19.20;99.90;;;;;;5093515;28;20203;-55
2021/07/08 03:02:59;;;;;;;8.77;1.90;;;19.30;99.90;;;;;;5093258;28;20606;-55
2021/07/08 03:05:28;;;;;;;5.90;2.20;;;19.30;99.90;;;;;;5093506;28;20604;-55
2021/07/08 03:07:54;;;;;;;7.20;2.33;;;19.30;99.90;;;;;;5093306;28;20236;-55
2021/07/08 03:10:23;;;;;;;4.22;2.15;;;19.20;99.90;;;;;;5093022;28;20713;-55
2021/07/08 03:12:50;;;;;;;3.83;1.85;;;19.20;99.90;;;;;;5093203;28;20220;-54
2021/07/08 03:15:17;;;;;;;6.65;2.38;;;19.20;99.90;;;;;;5093123;28;20208;-55
2021/07/08 03:17:44;;;;;;;3.95;2.50;;;19.20;99.90;;;;;;5093013;28;20208;-57
2021/07/08 03:20:14;;;;;;;6.85;2.00;;;19.20;99.90;;;;;;5093210;28;20211;-57
2021/07/08 03:22:43;;;;;;;5.50;2.38;;;19.10;99.90;;;;;;5107569;22;20229;-60
2021/07/08 03:25:12;;;;;;;3.78;2.05;;;19.10;99.90;;;;;;5072868;28;20205;-60
2021/07/08 03:27:40;;;;;;;5.35;2.10;;;19.10;99.90;;;;;;5072752;28;20212;-60
2021/07/08 03:30:09;;;;;;;4.30;2.05;;;19.10;99.90;;;;;;5072638;28;20209;-60
2021/07/08 03:32:36;;;;;;;5.18;1.90;;;19.10;99.90;;;;;;5072664;28;20228;-60
2021/07/08 03:35:03;;;;;;;3.45;2.53;;;19.10;99.90;;;;;;5072626;28;20568;-62
2021/07/08 03:37:30;;;;;;;4.40;2.35;;;19.10;99.90;;;;;;5072407;28;20679;-60
2021/07/08 03:39:58;;;;;;;5.55;2.20;;;19.10;99.90;;;;;;5072381;28;20607;-62
2021/07/08 03:42:25;;;;;;;5.30;2.63;;;19.00;99.90;;;;;;5072425;28;20229;-61
2021/07/08 03:44:53;;;;;;;4.55;2.90;;;19.10;99.90;;;;;;5072052;28;20212;-59
2021/07/08 03:47:19;;;;;;;4.85;2.55;;;19.10;99.90;;;;;;5072368;28;20236;-61
2021/07/08 03:49:46;;;;;;;5.00;3.83;;;19.10;99.90;;;;;;5072123;28;20668;-61
2021/07/08 03:52:13;;;;;;;5.35;3.20;;;19.10;99.90;;;;;;5071997;28;20239;-61
2021/07/08 03:54:39;;;;;;;4.40;3.58;;;19.10;99.90;;;;;;5072172;28;20209;-61
2021/07/08 03:57:08;;;;;;;3.88;2.78;;;19.20;99.90;;;;;;5072121;28;20255;-61
2021/07/08 03:59:34;;;;;;;3.10;2.55;;;19.20;99.90;;;;;;5071906;28;20509;-62
2021/07/08 04:02:01;;;;;;;7.63;2.80;;;19.00;99.90;;;;;;5072078;28;20227;-61
2021/07/08 04:04:28;;;;;;;5.13;2.35;;;18.90;99.90;;;;;;5072039;28;20208;-62
2021/07/08 04:06:54;;;;;;;3.67;2.50;;;18.80;99.90;;;;;;5072389;28;20209;-61
2021/07/08 04:09:21;;;;;;;3.53;2.55;;;18.80;99.90;;;;;;5071907;28;20413;-62
2021/07/08 04:11:48;;;;;;;4.93;2.53;;;18.80;99.90;;;;;;5071726;28;20223;-61
2021/07/08 04:14:16;;;;;;;5.75;2.75;;;18.60;99.90;;;;;;5071912;28;20205;-61
2021/07/08 04:16:42;;;;;;;2.30;2.10;;;18.30;99.90;;;;;;5071783;28;20204;-62
2021/07/08 04:19:09;;;;;;;3.60;2.53;;;18.30;99.90;;;;;;5071779;28;20209;-61
2021/07/08 04:21:36;;;;;;;4.20;3.25;;;18.30;99.90;;;;;;5071675;28;20213;-60
2021/07/08 04:24:02;;;;;;;10.82;8.95;;;18.30;99.90;;;;;;5071221;28;20243;-61
2021/07/08 04:26:29;;;;;;;5.53;3.22;;;18.30;99.90;;;;;;5071566;28;20201;-62
2021/07/08 04:28:56;;;;;;;7.20;4.40;;;18.40;99.90;;;;;;5071607;28;20228;-62
2021/07/08 04:31:24;;;;;;;7.93;3.70;;;18.50;99.90;;;;;;5071849;28;20240;-62
2021/07/08 04:33:51;;;;;;;4.07;3.30;;;18.60;99.90;;;;;;5071142;28;20758;-62
2021/07/08 04:36:17;;;;;;;6.60;3.15;;;18.50;99.90;;;;;;5071422;28;20209;-61
2021/07/08 04:38:47;;;;;;;3.03;2.40;;;18.60;99.90;;;;;;5071490;28;20205;-62
2021/07/08 04:41:14;;;;;;;4.15;2.40;;;18.50;99.90;;;;;;5071508;28;20254;-62
2021/07/08 04:43:40;;;;;;;3.95;2.22;;;18.40;99.90;;;;;;5071485;28;20236;-62
2021/07/08 04:46:07;;;;;;;2.97;2.05;;;18.40;99.90;;;;;;5071842;28;20212;-61
2021/07/08 04:48:36;;;;;;;5.68;2.70;;;18.40;99.90;;;;;;5071432;28;20349;-62
2021/07/08 04:51:03;;;;;;;6.60;4.88;;;18.40;99.90;;;;;;5071216;28;20281;-62
2021/07/08 04:53:30;;;;;;;7.03;2.53;;;18.60;99.90;;;;;;5070923;28;20274;-62
2021/07/08 04:55:57;;;;;;;8.80;3.25;;;18.70;99.90;;;;;;5071328;28;20216;-62
2021/07/08 04:58:23;;;;;;;4.75;2.28;;;18.80;99.90;;;;;;5071160;28;20205;-61
2021/07/08 05:00:50;;;;;;;4.03;2.60;;;19.10;99.90;;;;;;5070900;28;20680;-61
2021/07/08 05:03:17;;;;;;;7.45;2.60;;;19.10;99.90;;;;;;5070656;28;20251;-61
2021/07/08 05:05:47;;;;;;;5.93;2.58;;;19.20;99.90;;;;;;5070767;28;20212;-61
2021/07/08 05:08:13;;;;;;;5.63;3.10;;;19.40;99.90;;;;;;5071067;28;20205;-63
2021/07/08 05:10:40;;;;;;;4.65;2.60;;;19.40;99.90;;;;;;5070671;28;20645;-61
2021/07/08 05:13:08;;;;;;;4.15;2.67;;;19.60;99.90;;;;;;5070792;28;20236;-61
2021/07/08 05:15:36;;;;;;;2.65;1.98;;;19.90;99.90;;;;;;5070613;28;20558;-60
2021/07/08 05:18:04;;;;;;;3.85;2.40;;;20.10;99.90;;;;;;5070288;28;20303;-60
2021/07/08 05:20:31;;;;;;;3.25;2.00;;;20.10;99.90;;;;;;5070787;28;20212;-61
2021/07/08 05:23:01;;;;;;;10.95;2.55;;;20.00;99.90;;;;;;5070635;28;20267;-61
2021/07/08 05:25:28;;;;;;;5.80;2.20;;;19.90;99.90;;;;;;5070731;28;20228;-61
2021/07/08 05:27:55;;;;;;;3.03;2.33;;;19.80;99.90;;;;;;5070793;28;20208;-61
2021/07/08 05:30:22;;;;;;;4.72;2.30;;;19.60;99.90;;;;;;5070765;28;20220;-61
2021/07/08 05:32:48;;;;;;;4.43;2.42;;;19.40;99.90;;;;;;5070795;28;20233;-61
2021/07/08 05:35:15;;;;;;;3.75;2.10;;;19.40;99.90;;;;;;5070547;28;20209;-61
2021/07/08 05:37:42;;;;;;;6.07;2.30;;;19.40;99.90;;;;;;5070959;28;20205;-61
2021/07/08 05:40:11;;;;;;;2.40;2.15;;;19.50;99.90;;;;;;5070665;28;20209;-61
2021/07/08 05:42:38;;;;;;;4.10;2.55;;;19.70;99.90;;;;;;5070631;28;20221;-61
2021/07/08 05:45:06;;;;;;;4.45;2.38;;;19.80;99.90;;;;;;5070533;28;20664;-61
2021/07/08 05:47:33;;;;;;;3.80;2.30;;;19.80;99.90;;;;;;5070442;28;20241;-61
2021/07/08 05:50:00;;;;;;;4.03;2.65;;;20.00;99.90;;;;;;5070406;28;20706;-61
2021/07/08 05:52:28;;;;;;;13.70;3.20;;;20.10;99.90;;;;;;5070591;28;20237;-62
2021/07/08 05:54:54;;;;;;;6.78;3.08;;;20.40;99.90;;;;;;5070828;28;20287;-61
2021/07/08 05:57:22;;;;;;;6.13;2.90;;;20.50;99.90;;;;;;5070569;28;20220;-61
2021/07/08 05:59:49;;;;;;;8.73;3.00;;;20.50;99.90;;;;;;5070309;28;20208;-61
2021/07/08 06:02:16;;;;;;;3.30;2.88;;;20.80;99.90;;;;;;5070155;28;20224;-61
2021/07/08 06:04:43;;;;;;;6.70;2.90;;;20.90;99.90;;;;;;5070228;28;20208;-61
2021/07/08 06:07:09;;;;;;;4.90;2.63;;;21.00;99.90;;;;;;5070618;28;20589;-61
2021/07/08 06:09:36;;;;;;;4.97;2.67;;;21.10;99.90;;;;;;5070505;28;20643;-61
2021/07/08 06:12:03;;;;;;;3.15;2.40;;;21.20;99.90;;;;;;5070383;28;20233;-61
2021/07/08 06:14:32;;;;;;;6.50;2.60;;;21.30;99.90;;;;;;5070300;28;20201;-62
2021/07/08 06:16:58;;;;;;;5.82;2.58;;;21.30;99.90;;;;;;5070459;28;20208;-60
2021/07/08 06:19:25;;;;;;;5.95;3.00;;;21.40;99.90;;;;;;5070412;28;20672;-61
2021/07/08 06:21:52;;;;;;;3.80;2.60;;;21.40;99.90;;;;;;5070169;28;20212;-62
2021/07/08 06:24:19;;;;;;;6.40;2.78;;;21.50;99.90;;;;;;5070264;28;20209;-61
2021/07/08 06:26:46;;;;;;;5.68;2.80;;;21.40;99.90;;;;;;5070283;28;20231;-61
2021/07/08 06:29:12;;;;;;;7.72;2.78;;;21.50;99.90;;;;;;5071873;28;20452;-61
2021/07/08 06:31:40;;;;;;;7.32;2.95;;;21.60;99.90;;;;;;5073805;28;20232;-62
2021/07/08 06:34:07;;;;;;;3.15;2.70;;;21.80;99.90;;;;;;5073411;28;20248;-62
2021/07/08 06:36:34;;;;;;;4.93;2.70;;;22.00;99.90;;;;;;5073726;28;20205;-60
2021/07/08 06:39:01;;;;;;;7.00;2.80;;;22.30;99.90;;;;;;5073695;28;20234;-61
2021/07/08 06:41:28;;;;;;;4.95;2.83;;;22.60;99.90;;;;;;5073673;28;20215;-61
2021/07/08 06:43:54;;;;;;;4.07;2.70;;;23.10;99.90;;;;;;5073250;28;20708;-61
2021/07/08 06:46:27;;;;;;;3.00;2.67;;;23.70;99.90;;;;;;5073918;28;20625;-62
2021/07/08 06:48:55;;;;;;;3.45;2.30;;;24.10;99.90;;;;;;5073390;28;20237;-60
2021/07/08 06:51:23;;;;;;;4.30;2.50;;;24.30;99.90;;;;;;5073224;28;20208;-61
2021/07/08 06:53:50;;;;;;;5.55;2.55;;;24.60;99.90;;;;;;5073410;28;20236;-60
2021/07/08 06:56:17;;;;;;;4.90;2.03;;;24.60;99.90;;;;;;5073587;28;20464;-61
2021/07/08 06:58:44;;;;;;;4.40;2.30;;;24.50;99.90;;;;;;5073282;28;20208;-61
2021/07/08 07:01:11;;;;;;;3.17;2.30;;;24.30;99.90;;;;;;5073463;28;20221;-61
2021/07/08 07:03:37;;;;;;;3.20;2.20;;;24.10;99.90;;;;;;5072893;28;20229;-61
2021/07/08 07:06:06;;;;;;;2.95;2.10;;;23.90;99.90;;;;;;5073588;28;20212;-62
2021/07/08 07:08:33;;;;;;;2.80;2.20;;;23.70;99.90;;;;;;5072840;28;20213;-60
2021/07/08 07:11:00;;;;;;;5.82;2.58;;;23.40;99.90;;;;;;5073401;28;20671;-61
2021/07/08 07:13:27;;;;;;;7.63;2.60;;;23.20;99.90;;;;;;5072785;28;20730;-60
2021/07/08 07:15:54;;;;;;;5.60;2.50;;;22.90;99.90;;;;;;5072867;28;20293;-61
2021/07/08 07:18:21;;;;;;;2.75;2.50;;;22.70;99.90;;;;;;5072842;28;20211;-61
2021/07/08 07:20:48;;;;;;;3.70;2.10;;;22.50;99.90;;;;;;5072803;28;20213;-61
2021/07/08 07:23:16;;;;;;;7.38;2.40;;;22.30;99.90;;;;;;5072575;28;20229;-61
2021/07/08 07:25:44;;;;;;;3.88;2.35;;;22.20;99.90;;;;;;5072695;28;20287;-61
2021/07/08 07:28:12;;;;;;;4.63;2.53;;;22.20;99.90;;;;;;5072951;28;20205;-62
2021/07/08 07:30:39;;;;;;;3.83;2.40;;;22.20;99.90;;;;;;5073054;28;20205;-62
2021/07/08 07:33:06;;;;;;;3.55;2.40;;;22.20;99.90;;;;;;5072538;28;20229;-61
2021/07/08 07:35:33;;;;;;;3.42;2.50;;;22.30;99.90;;;;;;5072462;28;20204;-61
2021/07/08 07:38:00;;;;;;;3.22;2.50;;;22.20;99.90;;;;;;5072128;28;20205;-61
2021/07/08 07:40:28;;;;;;;2.33;2.10;;;22.20;99.90;;;;;;5072311;28;20209;-60
2021/07/08 07:42:55;;;;;;;2.50;2.22;;;22.20;99.90;;;;;;5072824;28;20221;-61
2021/07/08 07:45:21;;;;;;;3.70;2.70;;;22.10;99.90;;;;;;5072683;28;20220;-61
2021/07/08 07:47:52;;;;;;;2.50;2.30;;;22.20;99.90;;;;;;5072197;28;20209;-61
2021/07/08 07:50:19;;;;;;;26.38;23.60;;;22.20;99.90;;;;;;5072206;28;20209;-60
2021/07/08 07:52:46;;;;;;;4.35;2.70;;;22.20;99.90;;;;;;5071800;28;20279;-60
2021/07/08 07:55:15;;;;;;;3.05;2.30;;;22.00;99.90;;;;;;5071965;28;20676;-60
2021/07/08 07:57:43;;;;;;;4.68;2.33;;;22.30;99.90;;;;;;5072202;28;20296;-60
2021/07/08 08:00:11;;;;;;;6.55;2.40;;;22.40;99.90;;;;;;5072079;28;20284;-59
2021/07/08 08:02:38;;;;;;;4.40;2.40;;;22.50;99.90;;;;;;5071929;28;20217;-60
2021/07/08 08:05:21;;;;;;;3.92;2.20;;;22.70;99.90;;;;;;5071672;28;20398;-63
2021/07/08 08:10:33;;;;;;;4.53;2.58;;;22.90;99.90;;;;;;5071990;28;20211;-60
2021/07/08 08:13:01;;;;;;;2.78;2.30;;;22.90;99.90;;;;;;5071698;28;20290;-60
2021/07/08 08:15:28;;;;;;;3.75;2.20;;;22.90;99.90;;;;;;5071288;28;20211;-60
2021/07/08 08:17:54;;;;;;;4.72;2.40;;;22.90;99.90;;;;;;5071897;28;20621;-60
2021/07/08 08:20:21;;;;;;;3.38;2.17;;;23.00;99.90;;;;;;5071728;28;20253;-60
2021/07/08 08:22:48;;;;;;;2.97;2.33;;;23.00;99.90;;;;;;5071579;28;20296;-59
2021/07/08 08:25:15;;;;;;;4.82;2.28;;;23.00;99.90;;;;;;5071220;28;20606;-59
2021/07/08 08:27:42;;;;;;;2.22;2.03;;;23.00;99.90;;;;;;5071359;28;20208;-60
2021/07/08 08:30:13;;;;;;;4.18;2.08;;;22.70;99.90;;;;;;5071338;28;20208;-60
2021/07/08 08:32:40;;;;;;;3.25;2.10;;;23.00;99.90;;;;;;5071672;28;20304;-60
2021/07/08 08:35:08;;;;;;;2.30;2.10;;;23.10;99.90;;;;;;5071893;28;20209;-60
2021/07/08 08:37:35;;;;;;;2.33;2.13;;;23.00;99.90;;;;;;5071300;28;20212;-59
2021/07/08 08:40:02;;;;;;;2.25;2.00;;;22.90;99.90;;;;;;5071189;28;20208;-60
2021/07/08 08:42:28;;;;;;;4.03;2.00;;;22.90;99.90;;;;;;5071264;28;20641;-61
2021/07/08 08:44:56;;;;;;;1.70;1.60;;;23.10;99.90;;;;;;5071055;28;20217;-59
2021/07/08 08:47:24;;;;;;;4.13;1.67;;;23.30;99.90;;;;;;5071172;28;20205;-60
2021/07/08 08:49:53;;;;;;;1.77;1.60;;;23.70;99.90;;;;;;5071139;28;20204;-60
2021/07/08 08:52:21;;;;;;;3.10;1.60;;;24.10;99.90;;;;;;5070301;28;20319;-61
2021/07/08 08:54:51;;;;;;;2.65;1.70;;;24.50;99.90;;;;;;5070818;28;20220;-60
2021/07/08 08:57:18;;;;;;;1.48;1.38;;;24.80;99.90;;;;;;5070808;28;20209;-61
2021/07/08 08:59:45;;;;;;;1.90;1.60;;;24.90;99.90;;;;;;5071525;28;20208;-61
2021/07/08 09:02:14;;;;;;;17.67;2.90;;;24.90;99.90;;;;;;5070907;28;20239;-60
2021/07/08 09:04:42;;;;;;;2.25;1.85;;;24.80;99.90;;;;;;5070853;28;20201;-60
2021/07/08 09:07:23;;;;;;;16.10;3.33;;;25.10;99.90;;;;;;5070950;28;20221;-61
2021/07/08 09:09:52;;;;;;;3.17;1.70;;;25.50;99.90;;;;;;5070542;28;20269;-61
2021/07/08 09:12:22;;;;;;;2.70;1.60;;;25.90;99.90;;;;;;5070815;28;20227;-60
2021/07/08 09:14:49;;;;;;;3.38;1.70;;;26.20;99.90;;;;;;5070908;28;20216;-59
2021/07/08 09:17:17;;;;;;;6.00;2.35;;;26.40;99.90;;;;;;5070776;28;20216;-63
2021/07/08 09:19:46;;;;;;;3.92;1.90;;;26.40;99.90;;;;;;5070930;28;20209;-60
2021/07/08 09:22:13;;;;;;;3.15;2.00;;;26.40;99.90;;;;;;5093506;22;20236;-57
2021/07/08 09:24:40;;;;;;;2.28;1.80;;;26.20;99.90;;;;;;5050665;28;20217;-59
2021/07/08 09:27:09;;;;;;;15.38;2.60;;;26.10;99.90;;;;;;5050949;28;20206;-59
2021/07/08 09:29:39;;;;;;;6.13;3.15;;;26.00;99.90;;;;;;5050647;28;20220;-59
2021/07/08 09:32:11;;;;;;;3.03;2.17;;;26.20;99.90;;;;;;5050627;28;20209;-59
2021/07/08 09:34:39;;;;;;;11.32;3.55;;;26.50;99.90;;;;;;5050710;28;20208;-59
2021/07/08 09:37:13;;;;;;;11.20;2.75;;;26.90;99.90;;;;;;5050944;28;20232;-58
2021/07/08 09:39:43;;;;;;;2.40;1.80;;;27.30;99.90;;;;;;5050615;28;20206;-58
2021/07/08 09:42:12;;;;;;;3.10;1.83;;;27.60;99.90;;;;;;5050781;28;20218;-59
2021/07/08 09:44:39;;;;;;;2.65;2.08;;;28.00;99.90;;;;;;5050334;28;20681;-59
2021/07/08 09:47:19;;;;;;;3.47;2.00;;;28.20;99.90;;;;;;5050672;28;20279;-59
2021/07/08 09:49:46;;;;;;;3.63;1.98;;;28.30;99.90;;;;;;5050463;28;20638;-59
2021/07/08 09:52:14;;;;;;;3.10;2.00;;;28.50;99.90;;;;;;5050525;28;20212;-59
2021/07/08 09:57:45;;;;;;;2.45;2.00;;;28.70;99.90;;;;;;5050157;28;20695;-59
2021/07/08 10:00:44;;;;;;;2.30;2.10;;;28.80;99.90;;;;;;5050488;28;20271;-58
2021/07/08 10:03:11;;;;;;;2.63;2.08;;;28.50;99.90;;;;;;5052278;28;20217;-59
2021/07/08 10:05:39;;;;;;;7.47;3.88;;;28.50;99.90;;;;;;5053900;28;20209;-59
2021/07/08 10:08:11;;;;;;;8.30;3.95;;;28.50;99.90;;;;;;5053619;28;20414;-59
2021/07/08 10:10:39;;;;;;;5.43;3.50;;;28.60;99.90;;;;;;5054332;28;20209;-59
2021/07/08 10:13:07;;;;;;;6.80;2.80;;;28.70;99.90;;;;;;5054459;28;20291;-58
2021/07/08 10:15:37;;;;;;;9.32;3.75;;;28.80;99.90;;;;;;5053254;28;20292;-59
2021/07/08 10:18:05;;;;;;;3.17;2.08;;;28.90;99.90;;;;;;5053790;28;20201;-63
2021/07/08 10:20:32;;;;;;;6.63;2.90;;;29.20;99.90;;;;;;5054237;28;20216;-58
2021/07/08 10:22:59;;;;;;;2.33;1.90;;;29.00;99.90;;;;;;5054150;28;20237;-58
2021/07/08 10:25:27;;;;;;;1.90;1.77;;;29.10;99.90;;;;;;5054191;28;20213;-59
2021/07/08 10:27:55;;;;;;;1.73;1.55;;;29.20;99.90;;;;;;5053623;28;20205;-62
2021/07/08 10:30:22;;;;;;;2.25;2.05;;;28.80;99.90;;;;;;5053980;28;20245;-59
2021/07/08 10:32:55;;;;;;;5.85;3.60;;;28.40;99.90;;;;;;5053449;28;20685;-59
2021/07/08 10:35:37;;;;;;;2.30;1.67;;;28.40;99.90;;;;;;5053565;28;20887;-61
2021/07/08 10:38:34;;;;;;;2.03;1.67;;;28.40;99.90;;;;;;5053724;28;20592;-61
2021/07/08 10:41:03;;;;;;;2.90;1.80;;;28.40;99.90;;;;;;5053577;28;20669;-62
2021/07/08 10:43:35;;;;;;;2.70;1.90;;;28.20;99.90;;;;;;5052924;28;20232;-61
2021/07/08 10:46:03;;;;;;;55.83;6.82;;;28.30;99.90;;;;;;5053863;28;20245;-61
2021/07/08 10:48:39;;;;;;;8.45;2.40;;;28.50;99.90;;;;;;5053332;28;20569;-61
2021/07/08 10:51:06;;;;;;;4.30;3.00;;;28.80;99.90;;;;;;5053498;28;20209;-61
2021/07/08 10:53:35;;;;;;;4.32;1.90;;;29.10;99.90;;;;;;5053093;28;20578;-61
2021/07/08 10:56:05;;;;;;;3.50;1.90;;;29.00;99.90;;;;;;5052955;28;20210;-61
2021/07/08 10:58:55;;;;;;;2.05;1.85;;;28.90;99.90;;;;;;5053013;28;20209;-61
2021/07/08 11:01:43;;;;;;;4.18;3.15;;;28.90;99.90;;;;;;5053407;28;20210;-61
2021/07/08 11:04:11;;;;;;;2.20;1.92;;;28.50;99.90;;;;;;5052708;28;20732;-60
2021/07/08 11:06:39;;;;;;;8.80;5.50;;;28.20;99.90;;;;;;5052701;28;20217;-61
2021/07/08 11:09:07;;;;;;;3.00;2.70;;;27.60;99.90;;;;;;5052681;28;20566;-61
2021/07/08 11:12:05;;;;;;;2.38;2.17;;;27.60;99.90;;;;;;5052935;28;20201;-61
2021/07/08 11:14:33;;;;;;;2.85;2.30;;;27.70;99.90;;;;;;5051894;28;20221;-61
2021/07/08 11:17:20;;;;;;;6.63;4.93;;;27.80;99.90;;;;;;5052465;28;20719;-62
2021/07/08 11:19:49;;;;;;;3.70;3.08;;;27.90;99.90;;;;;;5052979;28;20216;-59
2021/07/08 11:22:31;;;;;;;4.55;2.25;;;27.90;99.90;;;;;;5052696;28;20212;-59
2021/07/08 11:24:58;;;;;;;2.95;2.10;;;27.80;99.90;;;;;;5052449;28;20221;-59
2021/07/08 11:27:34;;;;;;;1.92;1.73;;;27.60;99.90;;;;;;5052912;28;20217;-59
2021/07/08 11:30:05;;;;;;;2.03;1.83;;;27.40;99.90;;;;;;5052637;28;20664;-59
2021/07/08 11:32:38;;;;;;;2.30;1.83;;;27.30;99.90;;;;;;5052438;28;20528;-59
2021/07/08 11:35:07;;;;;;;2.47;1.90;;;27.20;99.90;;;;;;5052373;28;20225;-60
2021/07/08 11:37:39;;;;;;;1.92;1.70;;;27.30;99.90;;;;;;5052896;28;20275;-59
2021/07/08 11:40:09;;;;;;;5.20;1.75;;;27.30;99.90;;;;;;5052883;28;20210;-59
2021/07/08 11:42:38;;;;;;;2.22;2.03;;;27.10;99.90;;;;;;5052700;28;20313;-59
2021/07/08 11:45:07;;;;;;;1.67;1.58;;;27.00;99.90;;;;;;5052429;28;20209;-60
2021/07/08 11:47:41;;;;;;;1.63;1.50;;;27.10;99.90;;;;;;5052463;28;20209;-59
2021/07/08 11:50:19;;;;;;;2.20;1.50;;;27.40;99.90;;;;;;5052344;28;20233;-59
2021/07/08 11:52:47;;;;;;;1.70;1.60;;;27.60;99.90;;;;;;5052685;28;20232;-60
2021/07/08 11:55:15;;;;;;;1.60;1.50;;;28.00;99.90;;;;;;5052356;28;20751;-59
2021/07/08 11:57:54;;;;;;;3.50;1.60;;;28.30;99.90;;;;;;5052415;28;20232;-59
2021/07/08 12:00:35;;;;;;;2.08;1.75;;;28.40;99.90;;;;;;5052602;28;20244;-59
2021/07/08 12:03:03;;;;;;;2.20;1.63;;;28.50;99.80;;;;;;5052053;28;20221;-59
2021/07/08 12:05:30;;;;;;;2.83;1.73;;;28.60;99.60;;;;;;5051994;28;20260;-60
2021/07/08 12:08:03;;;;;;;2.35;1.85;;;28.40;99.40;;;;;;5052355;28;20217;-60
2021/07/08 12:10:31;;;;;;;1.85;1.75;;;28.60;99.60;;;;;;5052349;28;20228;-59
2021/07/08 12:13:01;;;;;;;1.73;1.63;;;28.60;99.40;;;;;;5051787;28;20739;-60
2021/07/08 12:15:28;;;;;;;3.22;1.90;;;28.50;99.00;;;;;;5052062;28;20210;-59
2021/07/08 12:17:57;;;;;;;3.05;1.90;;;28.30;99.60;;;;;;5052144;28;20214;-59
2021/07/08 12:20:24;;;;;;;2.78;2.00;;;27.80;99.90;;;;;;5051897;28;20206;-59
2021/07/08 12:23:02;;;;;;;1.73;1.63;;;27.40;99.90;;;;;;5051350;28;20294;-59
2021/07/08 12:25:29;;;;;;;2.63;1.85;;;27.20;99.90;;;;;;5051277;28;20255;-60
2021/07/08 12:27:57;;;;;;;2.63;2.00;;;27.10;99.90;;;;;;5050932;28;20214;-60
2021/07/08 12:30:27;;;;;;;2.42;2.22;;;27.00;99.90;;;;;;5051877;28;20206;-60
2021/07/08 12:33:09;;;;;;;3.13;2.10;;;26.70;99.90;;;;;;5051654;28;20236;-60
2021/07/08 12:35:44;;;;;;;2.40;2.17;;;26.50;99.90;;;;;;5051353;28;20212;-59
2021/07/08 12:38:12;;;;;;;3.33;2.15;;;26.50;99.90;;;;;;5051258;28;20232;-59
2021/07/08 12:40:39;;;;;;;3.47;2.10;;;26.60;99.90;;;;;;5051430;28;20649;-59
2021/07/08 12:43:08;;;;;;;5.20;2.17;;;26.90;99.90;;;;;;5051295;28;20221;-58
2021/07/08 12:45:38;;;;;;;4.25;2.38;;;27.00;99.90;;;;;;5051106;28;20209;-58
2021/07/08 12:48:08;;;;;;;3.58;2.25;;;27.10;99.90;;;;;;5050796;28;20210;-58
2021/07/08 12:50:37;;;;;;;3.22;1.83;;;27.00;99.90;;;;;;5050999;28;20681;-58
2021/07/08 12:53:05;;;;;;;3.28;2.05;;;26.80;99.90;;;;;;5051295;28;20239;-58
2021/07/08 12:55:36;;;;;;;1.98;1.67;;;26.60;99.90;;;;;;5050882;28;20237;-58
2021/07/08 12:58:04;;;;;;;12.48;1.63;;;26.60;99.90;;;;;;5051256;28;20209;-58